Sant Lluis, Spain
Current Conditions -  °F | °C
As of 5:30 PM on Thursday 30 Oct 2014 (Local Time) from LEMH Reporting Station
Few Clouds Few Clouds  
Wind Chill: 66°   Ceiling: Unl
Heat Index: 66°   Visibility: 6mi
Dew Point: 59°   Wind: 2mph
Humidity: 78%   Direction: NA
Pressure: 30.18"   Gusts: NA
Location:  39.85°N, 4.26°E
Report Text: LEMH 301630Z VRB02KT 9999 FEW025 19/15 Q1022
Loading
Personal Weather Stations






























Interactive Weather Map
Tropical Storm Tracking
New forecast layout! Learn more

10-Day Weather Forecast

Advertisements
Track Severe Weather on mobile